createdAt,value
2023-04-06T00:03:07.544Z,100335.38
2023-04-06T00:08:11.462Z,100331.31
2023-04-06T00:13:14.520Z,100334.06
2023-04-06T00:18:17.601Z,100334.91
2023-04-06T00:23:20.750Z,100325.31
2023-04-06T00:28:26.740Z,100329.59
2023-04-06T00:33:29.713Z,100320.09
2023-04-06T00:38:33.186Z,100306.06
2023-04-06T00:43:36.205Z,100307.50
2023-04-06T00:48:40.285Z,100314.38
2023-04-06T00:53:43.203Z,100304.69
2023-04-06T00:58:46.077Z,100308.22
2023-04-06T01:03:51.219Z,100305.63
2023-04-06T01:08:54.442Z,100294.84
2023-04-06T01:13:57.512Z,100308.47
2023-04-06T01:19:00.352Z,100307.84
2023-04-06T01:24:03.635Z,100305.63
2023-04-06T01:29:06.824Z,100304.25
2023-04-06T01:34:10.018Z,100297.38
2023-04-06T01:39:13.058Z,100297.53
2023-04-06T01:44:20.255Z,100298.47
2023-04-06T01:49:23.631Z,100300.28
2023-04-06T01:54:26.663Z,100294.19
2023-04-06T01:59:29.938Z,100294.03
2023-04-06T02:04:32.735Z,100290.47
2023-04-06T02:09:37.423Z,100279.66
2023-04-06T02:14:40.834Z,100280.16
2023-04-06T02:19:43.896Z,100277.91
2023-04-06T02:24:47.705Z,100269.69
2023-04-06T02:29:50.934Z,100272.63
2023-04-06T02:34:53.927Z,100266.09
2023-04-06T02:39:57.912Z,100265.41
2023-04-06T02:45:01.527Z,100261.47
2023-04-06T02:50:05.253Z,100260.16
2023-04-06T02:55:08.838Z,100255.28
2023-04-06T03:00:13.819Z,100257.28
2023-04-06T03:05:17.191Z,100256.84
2023-04-06T03:10:20.268Z,100256.09
2023-04-06T03:15:23.581Z,100253.91
2023-04-06T03:20:26.566Z,100257.59
2023-04-06T03:25:31.300Z,100257.78
2023-04-06T03:30:35.538Z,100263.22
2023-04-06T03:35:38.821Z,100264.19
2023-04-06T03:40:41.885Z,100259.16
2023-04-06T03:45:44.900Z,100261.88
2023-04-06T03:50:47.987Z,100254.91
2023-04-06T03:55:51.573Z,100260.00
2023-04-06T04:00:54.635Z,100253.13
2023-04-06T04:05:57.792Z,100249.94
2023-04-06T04:11:00.789Z,100249.19
2023-04-06T04:16:04.604Z,100251.00
2023-04-06T04:21:08.268Z,100240.88
2023-04-06T04:26:12.005Z,100243.22
2023-04-06T04:31:15.484Z,100244.56
2023-04-06T04:36:19.109Z,100228.94
2023-04-06T04:41:22.812Z,100235.53
2023-04-06T04:46:26.041Z,100227.38
2023-04-06T04:51:29.330Z,100230.00
2023-04-06T04:56:32.436Z,100232.88
2023-04-06T05:01:43.972Z,100223.09
2023-04-06T05:07:10.828Z,100228.63
2023-04-06T05:12:13.814Z,100218.91
2023-04-06T05:17:16.999Z,100213.88
2023-04-06T05:22:19.794Z,100198.53
2023-04-06T05:27:22.813Z,100203.84
2023-04-06T05:32:26.556Z,100201.88
2023-04-06T05:37:29.636Z,100197.81
2023-04-06T05:42:46.193Z,100192.91
2023-04-06T05:47:49.271Z,100176.59
2023-04-06T05:52:52.188Z,100172.38
2023-04-06T05:57:55.302Z,100170.75
2023-04-06T06:02:58.348Z,100156.22
2023-04-06T06:08:03.288Z,100158.94
2023-04-06T06:13:06.644Z,100161.72
2023-04-06T06:18:09.890Z,100158.13
2023-04-06T06:23:13.214Z,100148.75
2023-04-06T06:28:16.338Z,100140.41
2023-04-06T06:33:19.383Z,100132.25
2023-04-06T06:38:23.762Z,100127.97
2023-04-06T06:43:27.768Z,100123.69
2023-04-06T06:48:30.840Z,100134.78
2023-04-06T06:53:33.640Z,100121.31
2023-04-06T06:58:36.593Z,100123.19
2023-04-06T07:03:39.561Z,100122.84
2023-04-06T07:08:42.441Z,100114.81
2023-04-06T07:13:45.516Z,100121.91
2023-04-06T07:18:48.583Z,100116.28
2023-04-06T07:23:51.844Z,100113.66
2023-04-06T07:28:54.812Z,100108.00
2023-04-06T07:33:58.133Z,100109.47
2023-04-06T07:39:01.273Z,100120.06
2023-04-06T07:44:05.129Z,100113.50
2023-04-06T07:49:08.316Z,100117.25
2023-04-06T07:54:11.312Z,100110.94
2023-04-06T07:59:15.749Z,100114.28
2023-04-06T08:04:18.819Z,100097.31
2023-04-06T08:09:21.838Z,100094.72
2023-04-06T08:14:25.390Z,100103.06
2023-04-06T08:19:28.343Z,100100.59
2023-04-06T08:24:33.469Z,100085.63
2023-04-06T08:29:36.899Z,100083.44
2023-04-06T08:34:39.853Z,100076.34
2023-04-06T08:39:42.918Z,100080.28
2023-04-06T08:44:47.321Z,100069.53
2023-04-06T08:49:51.324Z,100067.72
2023-04-06T08:54:54.339Z,100067.53
2023-04-06T08:59:58.915Z,100069.09
2023-04-06T09:05:03.033Z,100059.28
2023-04-06T09:10:07.339Z,100068.81
2023-04-06T09:15:24.162Z,100063.00
2023-04-06T09:20:29.420Z,100059.09
2023-04-06T09:25:33.555Z,100059.69
2023-04-06T09:30:37.088Z,100051.75
2023-04-06T09:35:40.528Z,100036.38
2023-04-06T09:41:00.697Z,100038.31
2023-04-06T09:46:05.919Z,100032.00
2023-04-06T09:51:13.032Z,100017.94
2023-04-06T09:56:22.132Z,100023.56
2023-04-06T10:01:29.468Z,100016.50
2023-04-06T10:06:36.810Z,100018.66
2023-04-06T10:11:40.676Z,100016.38
2023-04-06T10:16:44.347Z,100006.41
2023-04-06T10:21:52.004Z,100011.53
2023-04-06T10:27:07.294Z,100000.94
2023-04-06T10:32:10.623Z,99995.53
2023-04-06T10:37:20.019Z,99997.91
2023-04-06T10:42:37.129Z,99986.94
2023-04-06T10:47:42.079Z,99979.13
2023-04-06T10:52:47.621Z,99974.88
2023-04-06T10:57:50.707Z,99981.38
2023-04-06T11:03:02.138Z,99969.63
2023-04-06T11:08:05.846Z,99960.53
2023-04-06T11:13:10.085Z,99958.03
2023-04-06T11:18:13.731Z,99951.91
2023-04-06T11:23:27.561Z,99942.78
2023-04-06T11:28:31.271Z,99946.69
2023-04-06T11:33:39.493Z,99937.06
2023-04-06T11:38:42.721Z,99942.72
2023-04-06T11:43:49.032Z,99934.00
2023-04-06T11:48:52.075Z,99934.50
2023-04-06T11:53:57.093Z,99932.00
2023-04-06T11:59:03.189Z,99932.81
2023-04-06T12:04:06.479Z,99926.16
2023-04-06T12:09:09.436Z,99920.34
2023-04-06T12:14:13.526Z,99915.91
2023-04-06T12:19:16.508Z,99918.41
2023-04-06T12:24:19.851Z,99922.38
2023-04-06T12:29:22.909Z,99914.78
2023-04-06T12:34:27.148Z,99909.97
2023-04-06T12:39:30.194Z,99903.66
2023-04-06T12:44:33.216Z,99910.63
2023-04-06T12:49:36.906Z,99908.31
2023-04-06T12:54:39.764Z,99908.50
2023-04-06T12:59:46.257Z,99900.84
2023-04-06T13:04:51.629Z,99908.44
2023-04-06T13:09:55.061Z,99923.66
2023-04-06T13:14:58.233Z,99906.25
2023-04-06T13:20:01.288Z,99893.16
2023-04-06T13:25:04.896Z,99901.78
2023-04-06T13:30:09.036Z,99894.66
2023-04-06T13:35:12.713Z,99893.63
2023-04-06T13:40:15.920Z,99901.53
2023-04-06T13:45:19.106Z,99883.44
2023-04-06T13:50:22.102Z,99901.66
2023-04-06T13:55:27.745Z,99880.78
2023-04-06T14:00:30.862Z,99873.72
2023-04-06T14:05:34.439Z,99876.59
2023-04-06T14:10:43.554Z,99882.22
2023-04-06T14:15:46.549Z,99893.34
2023-04-06T14:20:59.887Z,99890.69
2023-04-06T14:26:10.285Z,99912.56
2023-04-06T14:31:17.246Z,99912.00
2023-04-06T14:36:20.670Z,99916.00
2023-04-06T14:41:25.902Z,99924.75
2023-04-06T14:46:29.428Z,99921.81
2023-04-06T14:51:35.800Z,99923.63
2023-04-06T14:56:39.786Z,99916.44
2023-04-06T15:01:42.976Z,99927.63
2023-04-06T15:06:46.226Z,99932.13
2023-04-06T15:11:49.257Z,99932.06
2023-04-06T15:16:52.329Z,99936.72
2023-04-06T15:21:55.379Z,99932.16
2023-04-06T15:26:58.339Z,99927.94
2023-04-06T15:32:01.329Z,99934.78
2023-04-06T15:37:05.864Z,99928.19
2023-04-06T15:42:09.481Z,99927.63
2023-04-06T15:47:12.415Z,99923.19
2023-04-06T15:52:15.618Z,99923.03
2023-04-06T15:57:18.582Z,99927.34
2023-04-06T16:02:23.759Z,99926.25
2023-04-06T16:07:26.917Z,99944.47
2023-04-06T16:12:29.972Z,99949.94
2023-04-06T16:17:33.040Z,99952.22
2023-04-06T16:22:36.734Z,99959.72
2023-04-06T16:27:39.633Z,99966.38
2023-04-06T16:32:43.508Z,99981.63
2023-04-06T16:37:46.679Z,99980.75
2023-04-06T16:42:49.717Z,99985.84
2023-04-06T16:47:52.573Z,99990.25
2023-04-06T16:52:56.221Z,99995.47
2023-04-06T16:57:59.178Z,99994.31
2023-04-06T17:03:02.319Z,99997.66
2023-04-06T17:08:05.767Z,99992.78
2023-04-06T17:13:08.713Z,99990.16
2023-04-06T17:18:11.796Z,99994.78
2023-04-06T17:23:15.850Z,99999.94
2023-04-06T17:28:18.905Z,100008.47
2023-04-06T17:33:22.335Z,100017.66
2023-04-06T17:38:25.381Z,100011.03
2023-04-06T17:43:28.379Z,100023.94
2023-04-06T17:48:32.223Z,100027.53
2023-04-06T17:53:37.126Z,100036.84
2023-04-06T17:58:40.703Z,100034.94
2023-04-06T18:03:43.668Z,100030.66
2023-04-06T18:08:46.896Z,100030.19
2023-04-06T18:13:49.919Z,100018.03
2023-04-06T18:18:53.095Z,100025.44
2023-04-06T18:23:57.162Z,100034.97
2023-04-06T18:29:00.679Z,100030.66
2023-04-06T18:34:04.865Z,100042.72
2023-04-06T18:39:07.666Z,100040.19
2023-04-06T18:44:10.697Z,100037.34
2023-04-06T18:49:13.703Z,100037.94
2023-04-06T18:54:17.256Z,100038.19
2023-04-06T18:59:20.369Z,100052.25
2023-04-06T19:04:23.614Z,100046.88
2023-04-06T19:09:26.824Z,100038.53
2023-04-06T19:14:33.171Z,100038.19
2023-04-06T19:19:37.837Z,100027.09
2023-04-06T19:24:42.724Z,100027.09
2023-04-06T19:29:45.688Z,100023.41
2023-04-06T19:34:49.372Z,100021.50
2023-04-06T19:39:52.228Z,100020.44
2023-04-06T19:44:56.431Z,100014.09
2023-04-06T19:50:03.313Z,100019.34
2023-04-06T19:55:07.016Z,100019.59
2023-04-06T20:00:11.116Z,100024.25
2023-04-06T20:05:14.291Z,100018.28
2023-04-06T20:10:17.919Z,100023.53
2023-04-06T20:15:23.168Z,100027.00
2023-04-06T20:20:26.098Z,100034.72
2023-04-06T20:25:29.141Z,100030.09
2023-04-06T20:30:32.129Z,100028.19
2023-04-06T20:35:35.421Z,100029.72
2023-04-06T20:40:44.496Z,100015.63
2023-04-06T20:45:48.343Z,100008.84
2023-04-06T20:50:52.983Z,100009.69
2023-04-06T20:55:58.205Z,100006.22
2023-04-06T21:01:01.199Z,100001.34
2023-04-06T21:06:04.370Z,100003.13
2023-04-06T21:11:07.474Z,99989.19
2023-04-06T21:16:11.367Z,99993.59
2023-04-06T21:21:14.784Z,99998.00
2023-04-06T21:26:17.860Z,100001.34
2023-04-06T21:31:22.240Z,99998.72
2023-04-06T21:36:25.294Z,99994.91
2023-04-06T21:41:32.896Z,99988.69
2023-04-06T21:46:35.882Z,99980.13
2023-04-06T21:51:38.873Z,99964.41
2023-04-06T21:56:41.821Z,99958.88
2023-04-06T22:01:45.007Z,99943.88
2023-04-06T22:06:47.998Z,99936.00
2023-04-06T22:11:51.064Z,99936.13
2023-04-06T22:16:54.067Z,99930.78
2023-04-06T22:21:57.533Z,99926.59
2023-04-06T22:27:00.482Z,99917.06
2023-04-06T22:32:03.774Z,99923.97
2023-04-06T22:37:07.122Z,99921.69
2023-04-06T22:42:09.958Z,99931.00
2023-04-06T22:47:13.115Z,99916.09
2023-04-06T22:52:16.430Z,99918.59
2023-04-06T22:57:20.306Z,99925.41
2023-04-06T23:02:23.353Z,99923.00
2023-04-06T23:07:27.202Z,99922.16
2023-04-06T23:12:30.688Z,99921.09
2023-04-06T23:17:33.848Z,99920.28
2023-04-06T23:22:37.009Z,99910.84
2023-04-06T23:27:40.011Z,99909.19
2023-04-06T23:32:43.084Z,99910.03
2023-04-06T23:37:46.400Z,99904.78
2023-04-06T23:42:49.394Z,99898.56
2023-04-06T23:47:52.544Z,99908.00
2023-04-06T23:52:55.854Z,99898.19
2023-04-06T23:57:59.078Z,99893.78
